sensor_id;sensor_type;location;lat;lon;timestamp;P1;durP1;ratioP1;P2;durP2;ratioP2
7931;SDS011;4011;49.424;10.894;2023-03-01T00:05:17;7.68;;;6.45;;
7931;SDS011;4011;49.424;10.894;2023-03-01T00:10:39;8.50;;;6.32;;
7931;SDS011;4011;49.424;10.894;2023-03-01T00:16:01;7.82;;;6.43;;
7931;SDS011;4011;49.424;10.894;2023-03-01T00:21:23;8.20;;;6.60;;
7931;SDS011;4011;49.424;10.894;2023-03-01T00:26:46;9.10;;;6.47;;
7931;SDS011;4011;49.424;10.894;2023-03-01T00:32:07;8.20;;;6.38;;
7931;SDS011;4011;49.424;10.894;2023-03-01T00:37:29;9.13;;;6.63;;
7931;SDS011;4011;49.424;10.894;2023-03-01T00:42:51;8.98;;;6.65;;
7931;SDS011;4011;49.424;10.894;2023-03-01T00:48:13;7.80;;;6.50;;
7931;SDS011;4011;49.424;10.894;2023-03-01T00:53:34;8.63;;;6.70;;
7931;SDS011;4011;49.424;10.894;2023-03-01T00:58:57;8.60;;;7.00;;
7931;SDS011;4011;49.424;10.894;2023-03-01T01:04:19;8.30;;;6.53;;
7931;SDS011;4011;49.424;10.894;2023-03-01T01:09:40;7.82;;;6.57;;
7931;SDS011;4011;49.424;10.894;2023-03-01T01:15:03;7.40;;;5.90;;
7931;SDS011;4011;49.424;10.894;2023-03-01T01:20:24;8.70;;;6.68;;
7931;SDS011;4011;49.424;10.894;2023-03-01T01:25:46;7.88;;;6.22;;
7931;SDS011;4011;49.424;10.894;2023-03-01T01:31:08;7.32;;;6.40;;
7931;SDS011;4011;49.424;10.894;2023-03-01T01:36:31;7.72;;;6.20;;
7931;SDS011;4011;49.424;10.894;2023-03-01T01:41:52;8.35;;;6.70;;
7931;SDS011;4011;49.424;10.894;2023-03-01T01:47:15;8.27;;;6.70;;
7931;SDS011;4011;49.424;10.894;2023-03-01T01:52:38;7.63;;;6.38;;
7931;SDS011;4011;49.424;10.894;2023-03-01T01:58:01;8.18;;;5.85;;
7931;SDS011;4011;49.424;10.894;2023-03-01T02:03:25;8.02;;;5.68;;
7931;SDS011;4011;49.424;10.894;2023-03-01T02:08:49;8.05;;;6.00;;
7931;SDS011;4011;49.424;10.894;2023-03-01T02:14:12;8.30;;;6.05;;
7931;SDS011;4011;49.424;10.894;2023-03-01T02:19:39;7.95;;;6.22;;
7931;SDS011;4011;49.424;10.894;2023-03-01T02:25:04;8.65;;;6.28;;
7931;SDS011;4011;49.424;10.894;2023-03-01T02:30:35;8.45;;;6.28;;
7931;SDS011;4011;49.424;10.894;2023-03-01T02:35:56;8.07;;;6.18;;
7931;SDS011;4011;49.424;10.894;2023-03-01T02:41:18;8.20;;;6.78;;
7931;SDS011;4011;49.424;10.894;2023-03-01T02:46:45;7.88;;;5.93;;
7931;SDS011;4011;49.424;10.894;2023-03-01T02:52:11;7.78;;;6.18;;
7931;SDS011;4011;49.424;10.894;2023-03-01T02:57:33;7.40;;;6.30;;
7931;SDS011;4011;49.424;10.894;2023-03-01T03:02:56;7.75;;;6.55;;
7931;SDS011;4011;49.424;10.894;2023-03-01T03:08:17;8.10;;;6.20;;
7931;SDS011;4011;49.424;10.894;2023-03-01T03:13:43;7.85;;;5.80;;
7931;SDS011;4011;49.424;10.894;2023-03-01T03:19:09;7.03;;;5.85;;
7931;SDS011;4011;49.424;10.894;2023-03-01T03:24:30;8.48;;;6.57;;
7931;SDS011;4011;49.424;10.894;2023-03-01T03:29:58;8.00;;;6.38;;
7931;SDS011;4011;49.424;10.894;2023-03-01T03:35:21;7.38;;;6.07;;
7931;SDS011;4011;49.424;10.894;2023-03-01T03:40:43;8.13;;;6.40;;
7931;SDS011;4011;49.424;10.894;2023-03-01T03:46:06;9.18;;;6.20;;
7931;SDS011;4011;49.424;10.894;2023-03-01T03:51:29;7.70;;;5.80;;
7931;SDS011;4011;49.424;10.894;2023-03-01T03:56:50;7.63;;;6.03;;
7931;SDS011;4011;49.424;10.894;2023-03-01T04:02:11;8.40;;;6.22;;
7931;SDS011;4011;49.424;10.894;2023-03-01T04:07:34;7.53;;;5.72;;
7931;SDS011;4011;49.424;10.894;2023-03-01T04:12:56;6.88;;;5.65;;
7931;SDS011;4011;49.424;10.894;2023-03-01T04:18:17;8.60;;;5.80;;
7931;SDS011;4011;49.424;10.894;2023-03-01T04:23:42;7.57;;;5.80;;
7931;SDS011;4011;49.424;10.894;2023-03-01T04:29:03;7.63;;;5.90;;
7931;SDS011;4011;49.424;10.894;2023-03-01T04:34:25;8.63;;;6.35;;
7931;SDS011;4011;49.424;10.894;2023-03-01T04:39:48;7.63;;;5.82;;
7931;SDS011;4011;49.424;10.894;2023-03-01T04:45:09;8.60;;;6.05;;
7931;SDS011;4011;49.424;10.894;2023-03-01T04:50:33;7.85;;;5.72;;
7931;SDS011;4011;49.424;10.894;2023-03-01T04:55:55;8.07;;;5.80;;
7931;SDS011;4011;49.424;10.894;2023-03-01T05:01:17;6.78;;;5.35;;
7931;SDS011;4011;49.424;10.894;2023-03-01T05:06:39;6.53;;;5.65;;
7931;SDS011;4011;49.424;10.894;2023-03-01T05:12:02;8.13;;;6.13;;
7931;SDS011;4011;49.424;10.894;2023-03-01T05:17:24;8.48;;;5.78;;
7931;SDS011;4011;49.424;10.894;2023-03-01T05:22:45;7.70;;;5.90;;
7931;SDS011;4011;49.424;10.894;2023-03-01T05:28:08;7.30;;;5.60;;
7931;SDS011;4011;49.424;10.894;2023-03-01T05:33:31;8.77;;;6.13;;
7931;SDS011;4011;49.424;10.894;2023-03-01T05:38:52;9.95;;;6.05;;
7931;SDS011;4011;49.424;10.894;2023-03-01T05:44:15;10.52;;;6.90;;
7931;SDS011;4011;49.424;10.894;2023-03-01T05:49:37;11.63;;;7.80;;
7931;SDS011;4011;49.424;10.894;2023-03-01T05:54:58;10.82;;;7.65;;
7931;SDS011;4011;49.424;10.894;2023-03-01T06:00:21;11.35;;;7.72;;
7931;SDS011;4011;49.424;10.894;2023-03-01T06:05:43;9.77;;;7.57;;
7931;SDS011;4011;49.424;10.894;2023-03-01T06:11:04;10.95;;;7.80;;
7931;SDS011;4011;49.424;10.894;2023-03-01T06:16:28;9.77;;;7.22;;
7931;SDS011;4011;49.424;10.894;2023-03-01T06:21:49;10.48;;;7.20;;
7931;SDS011;4011;49.424;10.894;2023-03-01T06:27:11;9.57;;;7.15;;
7931;SDS011;4011;49.424;10.894;2023-03-01T06:32:33;10.70;;;6.93;;
7931;SDS011;4011;49.424;10.894;2023-03-01T06:37:55;10.93;;;7.35;;
7931;SDS011;4011;49.424;10.894;2023-03-01T06:43:17;10.43;;;7.30;;
7931;SDS011;4011;49.424;10.894;2023-03-01T06:48:40;8.77;;;6.70;;
7931;SDS011;4011;49.424;10.894;2023-03-01T06:54:01;9.60;;;7.13;;
7931;SDS011;4011;49.424;10.894;2023-03-01T06:59:22;8.98;;;6.70;;
7931;SDS011;4011;49.424;10.894;2023-03-01T07:04:45;8.02;;;6.57;;
7931;SDS011;4011;49.424;10.894;2023-03-01T07:10:07;8.98;;;6.80;;
7931;SDS011;4011;49.424;10.894;2023-03-01T07:15:29;9.68;;;6.43;;
7931;SDS011;4011;49.424;10.894;2023-03-01T07:20:51;7.70;;;6.60;;
7931;SDS011;4011;49.424;10.894;2023-03-01T07:26:13;9.27;;;6.78;;
7931;SDS011;4011;49.424;10.894;2023-03-01T07:31:34;8.85;;;6.75;;
7931;SDS011;4011;49.424;10.894;2023-03-01T07:36:58;9.10;;;6.78;;
7931;SDS011;4011;49.424;10.894;2023-03-01T07:42:19;10.13;;;6.93;;
7931;SDS011;4011;49.424;10.894;2023-03-01T07:47:41;9.75;;;7.05;;
7931;SDS011;4011;49.424;10.894;2023-03-01T07:53:04;10.02;;;6.90;;
7931;SDS011;4011;49.424;10.894;2023-03-01T07:58:25;11.57;;;7.45;;
7931;SDS011;4011;49.424;10.894;2023-03-01T08:03:47;9.27;;;7.30;;
7931;SDS011;4011;49.424;10.894;2023-03-01T08:09:10;10.05;;;6.90;;
7931;SDS011;4011;49.424;10.894;2023-03-01T08:14:31;9.80;;;7.80;;
7931;SDS011;4011;49.424;10.894;2023-03-01T08:19:52;11.35;;;7.53;;
7931;SDS011;4011;49.424;10.894;2023-03-01T08:25:15;11.50;;;7.93;;
7931;SDS011;4011;49.424;10.894;2023-03-01T08:30:37;12.18;;;8.40;;
7931;SDS011;4011;49.424;10.894;2023-03-01T08:36:02;9.63;;;7.57;;
7931;SDS011;4011;49.424;10.894;2023-03-01T08:41:25;12.35;;;8.02;;
7931;SDS011;4011;49.424;10.894;2023-03-01T08:46:46;10.15;;;8.05;;
7931;SDS011;4011;49.424;10.894;2023-03-01T08:52:13;10.23;;;7.50;;
7931;SDS011;4011;49.424;10.894;2023-03-01T08:57:35;11.07;;;8.05;;
7931;SDS011;4011;49.424;10.894;2023-03-01T09:02:57;10.30;;;7.20;;
7931;SDS011;4011;49.424;10.894;2023-03-01T09:08:18;11.32;;;7.40;;
7931;SDS011;4011;49.424;10.894;2023-03-01T09:13:41;9.63;;;7.15;;
7931;SDS011;4011;49.424;10.894;2023-03-01T09:19:02;10.80;;;7.65;;
7931;SDS011;4011;49.424;10.894;2023-03-01T09:24:24;10.48;;;7.50;;
7931;SDS011;4011;49.424;10.894;2023-03-01T09:29:47;9.63;;;7.45;;
7931;SDS011;4011;49.424;10.894;2023-03-01T09:35:08;10.70;;;7.45;;
7931;SDS011;4011;49.424;10.894;2023-03-01T09:40:30;10.77;;;7.28;;
7931;SDS011;4011;49.424;10.894;2023-03-01T09:45:53;11.45;;;7.32;;
7931;SDS011;4011;49.424;10.894;2023-03-01T09:51:17;10.68;;;7.20;;
7931;SDS011;4011;49.424;10.894;2023-03-01T09:56:40;9.00;;;6.95;;
7931;SDS011;4011;49.424;10.894;2023-03-01T10:02:08;8.90;;;7.05;;
7931;SDS011;4011;49.424;10.894;2023-03-01T10:07:36;9.48;;;6.95;;
7931;SDS011;4011;49.424;10.894;2023-03-01T10:12:59;11.00;;;7.50;;
7931;SDS011;4011;49.424;10.894;2023-03-01T10:18:23;9.10;;;6.85;;
7931;SDS011;4011;49.424;10.894;2023-03-01T10:23:46;9.23;;;6.97;;
7931;SDS011;4011;49.424;10.894;2023-03-01T10:29:11;9.82;;;7.03;;
7931;SDS011;4011;49.424;10.894;2023-03-01T10:34:34;10.65;;;7.68;;
7931;SDS011;4011;49.424;10.894;2023-03-01T10:39:57;10.07;;;6.95;;
7931;SDS011;4011;49.424;10.894;2023-03-01T10:45:26;8.82;;;7.15;;
7931;SDS011;4011;49.424;10.894;2023-03-01T10:51:05;9.02;;;6.60;;
7931;SDS011;4011;49.424;10.894;2023-03-01T10:56:26;7.72;;;6.25;;
7931;SDS011;4011;49.424;10.894;2023-03-01T11:01:49;9.32;;;7.20;;
7931;SDS011;4011;49.424;10.894;2023-03-01T11:07:23;9.35;;;7.13;;
7931;SDS011;4011;49.424;10.894;2023-03-01T11:12:44;10.07;;;6.85;;
7931;SDS011;4011;49.424;10.894;2023-03-01T11:18:05;9.77;;;6.82;;
7931;SDS011;4011;49.424;10.894;2023-03-01T11:23:41;9.02;;;6.60;;
7931;SDS011;4011;49.424;10.894;2023-03-01T11:29:06;8.93;;;6.38;;
7931;SDS011;4011;49.424;10.894;2023-03-01T11:34:33;10.02;;;6.97;;
7931;SDS011;4011;49.424;10.894;2023-03-01T11:40:01;9.38;;;6.72;;
7931;SDS011;4011;49.424;10.894;2023-03-01T11:45:24;9.02;;;6.95;;
7931;SDS011;4011;49.424;10.894;2023-03-01T11:50:48;8.90;;;6.55;;
7931;SDS011;4011;49.424;10.894;2023-03-01T11:56:13;9.70;;;6.55;;
7931;SDS011;4011;49.424;10.894;2023-03-01T12:01:46;9.98;;;6.95;;
7931;SDS011;4011;49.424;10.894;2023-03-01T12:07:10;8.77;;;7.18;;
7931;SDS011;4011;49.424;10.894;2023-03-01T12:12:41;10.32;;;7.20;;
7931;SDS011;4011;49.424;10.894;2023-03-01T12:18:11;8.32;;;6.72;;
7931;SDS011;4011;49.424;10.894;2023-03-01T12:23:42;9.43;;;6.93;;
7931;SDS011;4011;49.424;10.894;2023-03-01T12:29:18;9.25;;;6.97;;
7931;SDS011;4011;49.424;10.894;2023-03-01T12:40:32;8.88;;;7.05;;
7931;SDS011;4011;49.424;10.894;2023-03-01T12:46:00;9.77;;;7.35;;
7931;SDS011;4011;49.424;10.894;2023-03-01T12:51:26;8.75;;;6.82;;
7931;SDS011;4011;49.424;10.894;2023-03-01T12:56:55;10.05;;;6.75;;
7931;SDS011;4011;49.424;10.894;2023-03-01T13:02:21;9.82;;;6.50;;
7931;SDS011;4011;49.424;10.894;2023-03-01T13:07:44;8.73;;;6.70;;
7931;SDS011;4011;49.424;10.894;2023-03-01T13:13:14;8.70;;;6.50;;
7931;SDS011;4011;49.424;10.894;2023-03-01T13:18:40;8.30;;;6.68;;
7931;SDS011;4011;49.424;10.894;2023-03-01T13:24:02;8.20;;;6.35;;
7931;SDS011;4011;49.424;10.894;2023-03-01T13:29:27;11.07;;;6.80;;
7931;SDS011;4011;49.424;10.894;2023-03-01T13:34:51;9.13;;;6.70;;
7931;SDS011;4011;49.424;10.894;2023-03-01T13:45:53;8.35;;;6.45;;
7931;SDS011;4011;49.424;10.894;2023-03-01T13:51:19;7.95;;;6.50;;
7931;SDS011;4011;49.424;10.894;2023-03-01T13:56:42;7.95;;;6.18;;
7931;SDS011;4011;49.424;10.894;2023-03-01T14:02:11;7.78;;;6.22;;
7931;SDS011;4011;49.424;10.894;2023-03-01T14:07:34;8.77;;;6.15;;
7931;SDS011;4011;49.424;10.894;2023-03-01T14:12:58;8.57;;;6.22;;
7931;SDS011;4011;49.424;10.894;2023-03-01T14:18:24;8.32;;;6.45;;
7931;SDS011;4011;49.424;10.894;2023-03-01T14:23:50;8.23;;;6.05;;
7931;SDS011;4011;49.424;10.894;2023-03-01T14:29:25;7.57;;;6.03;;
7931;SDS011;4011;49.424;10.894;2023-03-01T14:34:53;8.27;;;6.18;;
7931;SDS011;4011;49.424;10.894;2023-03-01T14:40:22;7.65;;;6.00;;
7931;SDS011;4011;49.424;10.894;2023-03-01T14:45:46;7.80;;;5.82;;
7931;SDS011;4011;49.424;10.894;2023-03-01T14:51:09;7.63;;;5.65;;
7931;SDS011;4011;49.424;10.894;2023-03-01T14:56:44;8.43;;;6.05;;
7931;SDS011;4011;49.424;10.894;2023-03-01T15:02:08;9.20;;;6.57;;
7931;SDS011;4011;49.424;10.894;2023-03-01T15:07:41;8.15;;;6.55;;
7931;SDS011;4011;49.424;10.894;2023-03-01T15:13:13;7.68;;;6.07;;
7931;SDS011;4011;49.424;10.894;2023-03-01T15:18:38;8.13;;;5.93;;
7931;SDS011;4011;49.424;10.894;2023-03-01T15:29:40;8.65;;;6.18;;
7931;SDS011;4011;49.424;10.894;2023-03-01T15:40:49;8.95;;;6.40;;
7931;SDS011;4011;49.424;10.894;2023-03-01T15:46:15;8.63;;;6.70;;
7931;SDS011;4011;49.424;10.894;2023-03-01T15:56:58;9.18;;;6.28;;
7931;SDS011;4011;49.424;10.894;2023-03-01T16:02:21;8.95;;;6.28;;
7931;SDS011;4011;49.424;10.894;2023-03-01T16:07:43;8.63;;;6.07;;
7931;SDS011;4011;49.424;10.894;2023-03-01T16:13:04;8.07;;;6.10;;
7931;SDS011;4011;49.424;10.894;2023-03-01T16:18:29;8.38;;;6.45;;
7931;SDS011;4011;49.424;10.894;2023-03-01T16:23:51;7.88;;;5.97;;
7931;SDS011;4011;49.424;10.894;2023-03-01T16:29:12;8.35;;;6.05;;
7931;SDS011;4011;49.424;10.894;2023-03-01T16:34:36;7.15;;;5.50;;
7931;SDS011;4011;49.424;10.894;2023-03-01T16:39:58;7.90;;;6.00;;
7931;SDS011;4011;49.424;10.894;2023-03-01T16:45:19;7.85;;;6.00;;
7931;SDS011;4011;49.424;10.894;2023-03-01T16:50:42;7.85;;;5.95;;
7931;SDS011;4011;49.424;10.894;2023-03-01T16:56:04;7.45;;;5.60;;
7931;SDS011;4011;49.424;10.894;2023-03-01T17:01:26;8.50;;;5.95;;
7931;SDS011;4011;49.424;10.894;2023-03-01T17:06:56;7.85;;;6.05;;
7931;SDS011;4011;49.424;10.894;2023-03-01T17:12:17;9.15;;;6.10;;
7931;SDS011;4011;49.424;10.894;2023-03-01T17:17:39;9.18;;;6.47;;
7931;SDS011;4011;49.424;10.894;2023-03-01T17:23:02;7.10;;;5.60;;
7931;SDS011;4011;49.424;10.894;2023-03-01T17:28:26;8.07;;;5.70;;
7931;SDS011;4011;49.424;10.894;2023-03-01T17:33:48;7.05;;;5.40;;
7931;SDS011;4011;49.424;10.894;2023-03-01T17:39:12;8.57;;;5.78;;
7931;SDS011;4011;49.424;10.894;2023-03-01T17:44:34;8.95;;;6.18;;
7931;SDS011;4011;49.424;10.894;2023-03-01T17:49:55;7.30;;;5.30;;
7931;SDS011;4011;49.424;10.894;2023-03-01T17:55:18;8.57;;;5.85;;
7931;SDS011;4011;49.424;10.894;2023-03-01T18:00:40;7.93;;;5.70;;
7931;SDS011;4011;49.424;10.894;2023-03-01T18:06:02;8.70;;;5.93;;
7931;SDS011;4011;49.424;10.894;2023-03-01T18:11:29;8.90;;;6.03;;
7931;SDS011;4011;49.424;10.894;2023-03-01T18:16:52;8.77;;;6.53;;
7931;SDS011;4011;49.424;10.894;2023-03-01T18:22:14;8.07;;;6.40;;
7931;SDS011;4011;49.424;10.894;2023-03-01T18:27:37;9.88;;;6.40;;
7931;SDS011;4011;49.424;10.894;2023-03-01T18:32:58;7.68;;;5.95;;
7931;SDS011;4011;49.424;10.894;2023-03-01T18:38:19;9.73;;;6.65;;
7931;SDS011;4011;49.424;10.894;2023-03-01T18:43:42;8.68;;;6.43;;
7931;SDS011;4011;49.424;10.894;2023-03-01T18:49:04;8.25;;;6.47;;
7931;SDS011;4011;49.424;10.894;2023-03-01T18:54:25;8.57;;;6.82;;
7931;SDS011;4011;49.424;10.894;2023-03-01T18:59:48;9.50;;;6.95;;
7931;SDS011;4011;49.424;10.894;2023-03-01T19:05:09;8.63;;;6.55;;
7931;SDS011;4011;49.424;10.894;2023-03-01T19:10:30;9.32;;;6.47;;
7931;SDS011;4011;49.424;10.894;2023-03-01T19:16:00;9.50;;;6.65;;
7931;SDS011;4011;49.424;10.894;2023-03-01T19:21:22;9.57;;;6.82;;
7931;SDS011;4011;49.424;10.894;2023-03-01T19:26:44;8.95;;;6.53;;
7931;SDS011;4011;49.424;10.894;2023-03-01T19:32:06;9.40;;;6.82;;
7931;SDS011;4011;49.424;10.894;2023-03-01T19:37:28;8.65;;;6.60;;
7931;SDS011;4011;49.424;10.894;2023-03-01T19:42:49;10.52;;;6.95;;
7931;SDS011;4011;49.424;10.894;2023-03-01T19:48:12;9.32;;;6.80;;
7931;SDS011;4011;49.424;10.894;2023-03-01T19:53:34;9.07;;;6.95;;
7931;SDS011;4011;49.424;10.894;2023-03-01T19:58:55;9.55;;;7.15;;
7931;SDS011;4011;49.424;10.894;2023-03-01T20:04:20;9.77;;;7.43;;
7931;SDS011;4011;49.424;10.894;2023-03-01T20:09:42;9.20;;;6.97;;
7931;SDS011;4011;49.424;10.894;2023-03-01T20:15:05;9.27;;;7.10;;
7931;SDS011;4011;49.424;10.894;2023-03-01T20:20:28;9.77;;;7.45;;
7931;SDS011;4011;49.424;10.894;2023-03-01T20:25:49;9.38;;;7.22;;
7931;SDS011;4011;49.424;10.894;2023-03-01T20:31:11;10.38;;;7.60;;
7931;SDS011;4011;49.424;10.894;2023-03-01T20:36:34;9.13;;;7.35;;
7931;SDS011;4011;49.424;10.894;2023-03-01T20:41:57;8.40;;;6.80;;
7931;SDS011;4011;49.424;10.894;2023-03-01T20:47:18;10.90;;;7.38;;
7931;SDS011;4011;49.424;10.894;2023-03-01T20:52:42;10.32;;;7.40;;
7931;SDS011;4011;49.424;10.894;2023-03-01T20:58:04;10.48;;;7.35;;
7931;SDS011;4011;49.424;10.894;2023-03-01T21:03:25;10.77;;;7.78;;
7931;SDS011;4011;49.424;10.894;2023-03-01T21:08:48;10.32;;;7.53;;
7931;SDS011;4011;49.424;10.894;2023-03-01T21:14:10;10.18;;;7.97;;
7931;SDS011;4011;49.424;10.894;2023-03-01T21:19:34;10.25;;;8.02;;
7931;SDS011;4011;49.424;10.894;2023-03-01T21:24:57;10.98;;;7.75;;
7931;SDS011;4011;49.424;10.894;2023-03-01T21:30:18;10.80;;;8.18;;
7931;SDS011;4011;49.424;10.894;2023-03-01T21:35:39;10.93;;;7.72;;
7931;SDS011;4011;49.424;10.894;2023-03-01T21:41:06;9.77;;;7.85;;
7931;SDS011;4011;49.424;10.894;2023-03-01T21:46:29;10.15;;;8.05;;
7931;SDS011;4011;49.424;10.894;2023-03-01T21:51:50;11.32;;;8.10;;
7931;SDS011;4011;49.424;10.894;2023-03-01T21:57:13;11.23;;;8.27;;
7931;SDS011;4011;49.424;10.894;2023-03-01T22:02:35;10.38;;;8.40;;
7931;SDS011;4011;49.424;10.894;2023-03-01T22:07:56;10.70;;;8.02;;
7931;SDS011;4011;49.424;10.894;2023-03-01T22:13:19;11.35;;;8.90;;
7931;SDS011;4011;49.424;10.894;2023-03-01T22:18:40;12.68;;;9.15;;
7931;SDS011;4011;49.424;10.894;2023-03-01T22:24:02;11.38;;;8.68;;
7931;SDS011;4011;49.424;10.894;2023-03-01T22:29:26;11.63;;;8.55;;
7931;SDS011;4011;49.424;10.894;2023-03-01T22:34:47;10.38;;;8.63;;
7931;SDS011;4011;49.424;10.894;2023-03-01T22:40:09;11.18;;;8.35;;
7931;SDS011;4011;49.424;10.894;2023-03-01T22:45:32;10.68;;;8.25;;
7931;SDS011;4011;49.424;10.894;2023-03-01T22:50:53;11.48;;;8.10;;
7931;SDS011;4011;49.424;10.894;2023-03-01T22:56:15;10.60;;;7.97;;
7931;SDS011;4011;49.424;10.894;2023-03-01T23:01:39;12.45;;;7.95;;
7931;SDS011;4011;49.424;10.894;2023-03-01T23:07:01;10.30;;;8.30;;
7931;SDS011;4011;49.424;10.894;2023-03-01T23:12:22;10.55;;;7.82;;
7931;SDS011;4011;49.424;10.894;2023-03-01T23:17:45;10.85;;;8.40;;
7931;SDS011;4011;49.424;10.894;2023-03-01T23:23:06;12.02;;;9.13;;
7931;SDS011;4011;49.424;10.894;2023-03-01T23:28:28;10.95;;;8.27;;
7931;SDS011;4011;49.424;10.894;2023-03-01T23:33:50;12.35;;;8.48;;
7931;SDS011;4011;49.424;10.894;2023-03-01T23:39:12;10.70;;;8.50;;
7931;SDS011;4011;49.424;10.894;2023-03-01T23:44:33;11.23;;;8.02;;
7931;SDS011;4011;49.424;10.894;2023-03-01T23:49:59;11.93;;;8.10;;
7931;SDS011;4011;49.424;10.894;2023-03-01T23:55:20;10.32;;;7.93;;
